createdAt,value
2022-08-24T00:01:59.825Z,0.03
2022-08-24T00:04:28.323Z,0.50
2022-08-24T00:07:00.421Z,0.30
2022-08-24T00:09:28.991Z,0.30
2022-08-24T00:11:56.568Z,0.10
2022-08-24T00:14:24.528Z,0.00
2022-08-24T00:16:52.219Z,0.20
2022-08-24T00:19:19.845Z,0.20
2022-08-24T00:21:47.483Z,0.77
2022-08-24T00:24:14.995Z,0.07
2022-08-24T00:26:42.825Z,0.00
2022-08-24T00:29:10.629Z,0.57
2022-08-24T00:31:38.158Z,0.17
2022-08-24T00:34:05.736Z,0.00
2022-08-24T00:36:34.773Z,0.10
2022-08-24T00:39:04.309Z,0.27
2022-08-24T00:41:32.291Z,0.27
2022-08-24T00:44:04.624Z,0.40
2022-08-24T00:46:59.785Z,0.20
2022-08-24T00:50:02.811Z,0.10
2022-08-24T00:52:43.917Z,0.57
2022-08-24T00:55:37.236Z,0.57
2022-08-24T00:58:17.306Z,0.20
2022-08-24T01:00:53.856Z,0.17
2022-08-24T01:03:22.557Z,0.20
2022-08-24T01:05:51.031Z,0.13
2022-08-24T01:08:23.526Z,0.10
2022-08-24T01:11:01.281Z,0.17
2022-08-24T01:13:30.323Z,0.30
2022-08-24T01:16:02.494Z,0.63
2022-08-24T01:18:49.383Z,0.30
2022-08-24T01:21:22.670Z,0.87
2022-08-24T01:23:56.006Z,0.17
2022-08-24T01:26:49.650Z,0.10
2022-08-24T01:29:27.745Z,0.70
2022-08-24T01:31:56.390Z,0.50
2022-08-24T01:34:24.370Z,0.67
2022-08-24T01:36:56.861Z,0.50
2022-08-24T01:39:36.437Z,0.57
2022-08-24T01:42:04.918Z,0.57
2022-08-24T01:44:35.964Z,0.00
2022-08-24T01:47:07.677Z,0.33
2022-08-24T01:49:40.106Z,0.50
2022-08-24T01:52:10.313Z,0.03
2022-08-24T01:54:39.072Z,0.10
2022-08-24T01:57:16.251Z,0.77
2022-08-24T01:59:44.832Z,0.83
2022-08-24T02:02:37.513Z,0.20
2022-08-24T02:05:05.440Z,0.30
2022-08-24T02:07:33.062Z,0.97
2022-08-24T02:10:00.252Z,0.70
2022-08-24T02:12:28.056Z,0.20
2022-08-24T02:14:55.636Z,0.37
2022-08-24T02:17:23.743Z,0.23
2022-08-24T02:19:51.259Z,0.50
2022-08-24T02:22:19.020Z,0.43
2022-08-24T02:24:46.569Z,0.20
2022-08-24T02:27:17.071Z,0.63
2022-08-24T02:29:45.206Z,0.30
2022-08-24T02:32:13.032Z,0.37
2022-08-24T02:34:40.601Z,0.20
2022-08-24T02:37:08.315Z,0.63
2022-08-24T02:39:35.956Z,0.77
2022-08-24T02:42:03.739Z,0.10
2022-08-24T02:44:31.215Z,0.20
2022-08-24T02:46:58.812Z,1.23
2022-08-24T02:49:26.769Z,0.50
2022-08-24T02:51:54.615Z,0.10
2022-08-24T02:54:22.583Z,0.20
2022-08-24T02:56:50.263Z,0.73
2022-08-24T02:59:18.549Z,0.23
2022-08-24T03:01:47.156Z,0.53
2022-08-24T03:04:18.107Z,0.83
2022-08-24T03:06:45.633Z,0.30
2022-08-24T03:09:14.014Z,1.40
2022-08-24T03:11:42.662Z,0.30
2022-08-24T03:14:14.675Z,0.57
2022-08-24T03:16:42.627Z,0.67
2022-08-24T03:19:10.201Z,0.87
2022-08-24T03:21:37.864Z,0.80
2022-08-24T03:24:05.733Z,0.00
2022-08-24T03:26:33.498Z,1.07
2022-08-24T03:29:01.367Z,0.00
2022-08-24T03:31:28.544Z,0.87
2022-08-24T03:33:56.104Z,0.70
2022-08-24T03:36:23.581Z,0.47
2022-08-24T03:38:51.127Z,0.83
2022-08-24T03:41:18.596Z,2.00
2022-08-24T03:43:46.605Z,0.53
2022-08-24T03:46:36.979Z,0.70
2022-08-24T03:49:11.295Z,3.73
2022-08-24T03:51:39.240Z,0.40
2022-08-24T03:54:09.514Z,0.20
2022-08-24T03:56:37.329Z,0.20
2022-08-24T03:59:06.301Z,0.77
2022-08-24T04:01:34.380Z,0.93
2022-08-24T04:04:01.911Z,0.70
2022-08-24T04:06:29.528Z,0.17
2022-08-24T04:08:57.497Z,0.40
2022-08-24T04:11:29.117Z,0.20
2022-08-24T04:13:58.964Z,0.53
2022-08-24T04:16:28.013Z,0.60
2022-08-24T04:18:58.222Z,0.20
2022-08-24T04:21:35.489Z,0.50
2022-08-24T04:24:07.987Z,0.00
2022-08-24T04:26:44.503Z,0.10
2022-08-24T04:29:17.015Z,0.77
2022-08-24T04:31:45.294Z,1.10
2022-08-24T04:34:14.541Z,0.33
2022-08-24T04:36:43.797Z,0.17
2022-08-24T04:39:11.581Z,0.57
2022-08-24T04:41:40.631Z,0.90
2022-08-24T04:44:08.363Z,0.37
2022-08-24T04:46:36.719Z,0.40
2022-08-24T04:49:04.814Z,0.60
2022-08-24T04:51:36.677Z,1.10
2022-08-24T04:54:06.423Z,0.73
2022-08-24T04:56:34.067Z,0.10
2022-08-24T04:59:02.020Z,0.63
2022-08-24T05:01:32.306Z,0.97
2022-08-24T05:04:00.358Z,0.73
2022-08-24T05:06:30.968Z,0.20
2022-08-24T05:08:59.192Z,0.77
2022-08-24T05:11:27.534Z,0.23
2022-08-24T05:13:56.503Z,0.67
2022-08-24T05:16:25.970Z,0.60
2022-08-24T05:18:54.737Z,0.83
2022-08-24T05:21:24.609Z,0.43
2022-08-24T05:23:52.706Z,0.33
2022-08-24T05:26:26.082Z,0.70
2022-08-24T05:29:00.121Z,0.57
2022-08-24T05:31:31.073Z,0.40
2022-08-24T05:34:01.170Z,0.60
2022-08-24T05:36:33.143Z,0.77
2022-08-24T05:39:11.094Z,0.73
2022-08-24T05:41:44.534Z,0.97
2022-08-24T05:44:15.645Z,2.20
2022-08-24T05:46:44.832Z,0.57
2022-08-24T05:49:13.041Z,1.20
2022-08-24T05:51:42.863Z,0.73
2022-08-24T05:54:13.954Z,1.70
2022-08-24T05:56:42.075Z,1.00
2022-08-24T05:59:09.729Z,0.73
2022-08-24T06:01:42.231Z,1.67
2022-08-24T06:04:12.949Z,0.60
2022-08-24T06:06:40.873Z,1.30
2022-08-24T06:09:11.068Z,0.87
2022-08-24T06:11:40.603Z,1.17
2022-08-24T06:14:13.175Z,1.67
2022-08-24T06:16:44.789Z,0.90
2022-08-24T06:19:16.100Z,1.47
2022-08-24T06:21:46.848Z,3.27
2022-08-24T06:24:16.070Z,1.10
2022-08-24T06:27:04.451Z,0.93
2022-08-24T06:29:34.447Z,1.70
2022-08-24T06:32:02.070Z,1.00
2022-08-24T06:34:30.749Z,2.47
2022-08-24T06:36:58.285Z,1.40
2022-08-24T06:39:25.752Z,1.07
2022-08-24T06:41:53.361Z,0.93
2022-08-24T06:44:20.904Z,1.20
2022-08-24T06:46:49.330Z,1.70
2022-08-24T06:49:16.810Z,2.17
2022-08-24T06:51:48.633Z,0.83
2022-08-24T06:54:20.857Z,1.00
2022-08-24T06:56:48.325Z,0.97
2022-08-24T06:59:16.290Z,1.63
2022-08-24T07:01:49.127Z,1.33
2022-08-24T07:04:16.733Z,3.50
2022-08-24T07:06:45.426Z,1.83
2022-08-24T07:09:13.161Z,1.30
2022-08-24T07:11:41.402Z,0.70
2022-08-24T07:14:09.412Z,1.37
2022-08-24T07:16:39.193Z,1.07
2022-08-24T07:19:07.081Z,1.33
2022-08-24T07:21:35.067Z,0.97
2022-08-24T07:24:04.344Z,1.50
2022-08-24T07:26:32.397Z,1.27
2022-08-24T07:29:20.642Z,1.33
2022-08-24T07:31:57.310Z,1.63
2022-08-24T07:34:25.064Z,1.60
2022-08-24T07:36:53.117Z,3.73
2022-08-24T07:39:20.666Z,1.27
2022-08-24T07:42:11.396Z,1.30
2022-08-24T07:44:36.201Z,2.00
2022-08-24T07:47:34.231Z,1.17
2022-08-24T07:49:54.357Z,1.00
2022-08-24T07:52:25.089Z,1.70
2022-08-24T07:54:53.042Z,2.13
2022-08-24T07:57:23.647Z,2.50
2022-08-24T07:59:51.351Z,2.53
2022-08-24T08:02:19.568Z,2.10
2022-08-24T08:04:47.147Z,0.80
2022-08-24T08:07:14.830Z,1.30
2022-08-24T08:09:42.896Z,1.37
2022-08-24T08:12:11.394Z,2.07
2022-08-24T08:14:38.957Z,0.47
2022-08-24T08:17:07.498Z,1.00
2022-08-24T08:19:36.605Z,1.10
2022-08-24T08:22:22.951Z,1.43
2022-08-24T08:24:50.812Z,1.23
2022-08-24T08:27:20.564Z,1.23
2022-08-24T08:29:49.082Z,1.50
2022-08-24T08:32:20.214Z,0.60
2022-08-24T08:34:52.024Z,1.70
2022-08-24T08:37:22.524Z,1.63
2022-08-24T08:39:54.916Z,1.17
2022-08-24T08:43:02.328Z,1.33
2022-08-24T08:45:44.176Z,0.97
2022-08-24T08:48:44.137Z,2.00
2022-08-24T08:51:58.584Z,0.30
2022-08-24T08:54:49.756Z,1.33
2022-08-24T08:58:13.860Z,1.27
2022-08-24T09:01:01.790Z,1.10
2022-08-24T09:03:38.486Z,1.60
2022-08-24T09:06:18.304Z,1.10
2022-08-24T09:09:35.117Z,1.20
2022-08-24T09:12:27.333Z,1.90
2022-08-24T09:15:18.715Z,0.87
2022-08-24T09:18:01.944Z,0.40
2022-08-24T09:20:50.924Z,0.70
2022-08-24T09:23:18.690Z,0.77
2022-08-24T09:26:00.740Z,1.33
2022-08-24T09:29:08.508Z,0.70
2022-08-24T09:32:16.347Z,1.23
2022-08-24T09:34:58.650Z,2.37
2022-08-24T09:38:01.899Z,1.17
2022-08-24T09:40:39.914Z,0.93
2022-08-24T09:44:15.804Z,0.80
2022-08-24T09:47:16.831Z,1.53
2022-08-24T09:50:28.311Z,0.87
2022-08-24T09:53:30.598Z,1.57
2022-08-24T09:56:14.500Z,1.73
2022-08-24T09:59:06.603Z,0.60
2022-08-24T10:01:54.047Z,1.93
2022-08-24T10:04:43.784Z,0.87
2022-08-24T10:07:47.518Z,0.93
2022-08-24T10:10:35.743Z,0.77
2022-08-24T10:13:49.367Z,1.43
2022-08-24T10:16:49.935Z,1.80
2022-08-24T10:19:46.027Z,1.77
2022-08-24T10:22:34.667Z,3.43
2022-08-24T10:25:28.073Z,1.33
2022-08-24T10:28:34.768Z,1.67
2022-08-24T10:32:07.932Z,1.67
2022-08-24T10:35:08.557Z,1.33
2022-08-24T10:38:45.376Z,1.83
2022-08-24T10:41:32.375Z,1.43
2022-08-24T10:44:30.441Z,1.30
2022-08-24T10:47:23.788Z,2.97
2022-08-24T10:50:56.364Z,0.90
2022-08-24T10:53:31.098Z,0.70
2022-08-24T10:56:16.207Z,1.43
2022-08-24T10:59:08.358Z,1.83
2022-08-24T11:01:39.492Z,1.70
2022-08-24T11:04:07.441Z,1.73
2022-08-24T11:06:45.458Z,1.10
2022-08-24T11:09:19.942Z,1.70
2022-08-24T11:11:50.425Z,1.63
2022-08-24T11:14:23.548Z,1.10
2022-08-24T11:16:55.732Z,1.10
2022-08-24T11:19:27.497Z,1.53
2022-08-24T11:21:58.995Z,0.83
2022-08-24T11:24:41.794Z,2.13
2022-08-24T11:27:39.650Z,1.30
2022-08-24T11:30:30.694Z,1.27
2022-08-24T11:33:01.435Z,1.27
2022-08-24T11:35:40.123Z,2.03
2022-08-24T11:38:26.126Z,1.13
2022-08-24T11:41:30.415Z,1.40
2022-08-24T11:44:17.824Z,0.97
2022-08-24T11:47:19.788Z,1.37
2022-08-24T11:50:46.494Z,1.80
2022-08-24T11:56:38.173Z,2.23
2022-08-24T12:00:00.916Z,0.80
2022-08-24T12:03:16.932Z,0.70
2022-08-24T12:05:52.507Z,1.20
2022-08-24T12:08:56.541Z,1.30
2022-08-24T12:11:42.201Z,1.17
2022-08-24T12:14:25.528Z,0.70
2022-08-24T12:17:14.692Z,2.00
2022-08-24T12:20:29.885Z,0.80
2022-08-24T12:23:24.786Z,1.00
2022-08-24T12:26:14.416Z,0.73
2022-08-24T12:28:54.215Z,1.00
2022-08-24T12:31:38.205Z,2.27
2022-08-24T12:34:25.240Z,1.10
2022-08-24T12:37:16.362Z,0.90
2022-08-24T12:40:04.949Z,1.07
2022-08-24T12:42:51.335Z,1.10
2022-08-24T12:45:23.000Z,0.90
2022-08-24T12:48:06.541Z,1.17
2022-08-24T12:50:52.214Z,1.53
2022-08-24T12:53:31.278Z,2.43
2022-08-24T12:56:47.252Z,1.43
2022-08-24T12:59:47.411Z,1.27
2022-08-24T13:02:17.714Z,0.47
2022-08-24T13:04:51.275Z,1.67
2022-08-24T13:07:24.499Z,1.60
2022-08-24T13:10:03.032Z,0.50
2022-08-24T13:12:43.757Z,1.27
2022-08-24T13:15:35.059Z,1.03
2022-08-24T13:18:22.125Z,1.07
2022-08-24T13:20:51.460Z,0.53
2022-08-24T13:23:24.927Z,1.23
2022-08-24T13:25:56.239Z,0.87
2022-08-24T13:28:23.706Z,1.60
2022-08-24T13:30:53.998Z,1.50
2022-08-24T13:33:51.084Z,1.30
2022-08-24T13:36:48.101Z,0.37
2022-08-24T13:39:50.067Z,0.90
2022-08-24T13:42:46.665Z,0.53
2022-08-24T13:45:23.179Z,0.70
2022-08-24T13:48:20.314Z,1.60
2022-08-24T13:51:29.300Z,0.63
2022-08-24T13:54:26.146Z,1.57
2022-08-24T13:57:16.356Z,0.40
2022-08-24T13:59:53.614Z,4.40
2022-08-24T14:02:53.856Z,1.10
2022-08-24T14:06:05.957Z,1.13
2022-08-24T14:09:16.995Z,1.57
2022-08-24T14:11:51.567Z,1.13
2022-08-24T14:14:19.562Z,1.10
2022-08-24T14:17:24.121Z,0.50
2022-08-24T14:20:46.731Z,0.40
2022-08-24T14:24:05.522Z,0.40
2022-08-24T14:26:39.077Z,0.30
2022-08-24T14:29:19.147Z,0.47
2022-08-24T14:32:00.255Z,0.10
2022-08-24T14:34:42.160Z,0.57
2022-08-24T14:37:24.964Z,0.87
2022-08-24T14:40:15.569Z,0.40
2022-08-24T14:43:06.820Z,0.53
2022-08-24T14:46:15.786Z,0.47
2022-08-24T14:48:49.166Z,0.53
2022-08-24T14:51:46.776Z,0.20
2022-08-24T14:54:23.937Z,0.47
2022-08-24T14:57:13.900Z,0.30
2022-08-24T15:00:12.269Z,0.40
2022-08-24T15:02:52.070Z,0.40
2022-08-24T15:05:34.468Z,0.83
2022-08-24T15:08:02.598Z,0.87
2022-08-24T15:10:54.881Z,0.20
2022-08-24T15:13:43.833Z,0.53
2022-08-24T15:16:38.976Z,0.23
2022-08-24T15:19:31.438Z,0.10
2022-08-24T15:22:05.656Z,0.40
2022-08-24T15:25:00.811Z,0.13
2022-08-24T15:27:44.074Z,0.30
2022-08-24T15:30:35.034Z,0.20
2022-08-24T15:33:19.679Z,0.20
2022-08-24T15:36:11.325Z,0.40
2022-08-24T15:38:41.420Z,2.20
2022-08-24T15:41:17.329Z,0.00
2022-08-24T15:43:56.958Z,0.50
2022-08-24T15:46:50.141Z,0.00
2022-08-24T15:49:29.642Z,0.63
2022-08-24T15:52:04.736Z,0.20
2022-08-24T15:54:57.960Z,0.30
2022-08-24T15:57:35.639Z,0.10
2022-08-24T16:00:44.231Z,0.30
2022-08-24T16:03:26.712Z,0.53
2022-08-24T16:06:16.380Z,0.20
2022-08-24T16:08:56.826Z,0.00
2022-08-24T16:11:55.742Z,0.10
2022-08-24T16:14:47.353Z,0.33
2022-08-24T16:17:50.548Z,0.00
2022-08-24T16:20:39.092Z,0.20
2022-08-24T16:23:24.812Z,0.40
2022-08-24T16:26:29.005Z,0.27
2022-08-24T16:28:57.792Z,0.30
2022-08-24T16:31:52.001Z,0.30
2022-08-24T16:34:31.105Z,0.47
2022-08-24T16:37:01.325Z,0.00
2022-08-24T16:39:29.565Z,0.00
2022-08-24T16:42:03.597Z,0.77
2022-08-24T16:44:36.962Z,0.20
2022-08-24T16:47:05.762Z,0.40
2022-08-24T16:49:33.904Z,0.00
2022-08-24T16:52:03.602Z,0.13
2022-08-24T16:54:31.945Z,0.47
2022-08-24T16:57:02.873Z,0.13
2022-08-24T16:59:37.873Z,0.40
2022-08-24T17:02:05.836Z,0.00
2022-08-24T17:04:35.395Z,0.20
2022-08-24T17:07:08.587Z,0.23
2022-08-24T17:09:42.081Z,1.90
2022-08-24T17:12:10.665Z,0.20
2022-08-24T17:14:39.876Z,0.13
2022-08-24T17:17:15.030Z,0.00
2022-08-24T17:19:43.830Z,0.23
2022-08-24T17:22:16.275Z,0.10
2022-08-24T17:24:45.759Z,0.20
2022-08-24T17:27:14.636Z,0.20
2022-08-24T17:29:45.270Z,0.10
2022-08-24T17:32:17.575Z,0.63
2022-08-24T17:34:45.057Z,0.17
2022-08-24T17:37:13.156Z,0.30
2022-08-24T17:39:40.773Z,3.33
2022-08-24T17:42:22.304Z,0.37
2022-08-24T17:44:59.392Z,0.10
2022-08-24T17:47:27.586Z,0.27
2022-08-24T17:49:55.213Z,1.07
2022-08-24T17:52:22.696Z,0.20
2022-08-24T17:54:50.289Z,0.10
2022-08-24T17:57:18.242Z,0.10
2022-08-24T17:59:46.375Z,0.10
2022-08-24T18:02:14.269Z,0.30
2022-08-24T18:04:44.022Z,0.23
2022-08-24T18:07:25.676Z,0.33
2022-08-24T18:10:08.344Z,0.40
2022-08-24T18:12:36.407Z,0.43
2022-08-24T18:15:05.342Z,0.10
2022-08-24T18:17:46.577Z,0.27
2022-08-24T18:20:21.301Z,0.20
2022-08-24T18:22:50.669Z,0.03
2022-08-24T18:25:23.458Z,0.20
2022-08-24T18:27:56.386Z,0.30
2022-08-24T18:30:30.813Z,0.20
2022-08-24T18:33:02.563Z,0.30
2022-08-24T18:35:31.413Z,0.27
2022-08-24T18:37:59.914Z,1.33
2022-08-24T18:40:33.150Z,0.30
2022-08-24T18:43:03.626Z,0.57
2022-08-24T18:45:33.968Z,0.60
2022-08-24T18:48:04.044Z,1.10
2022-08-24T18:50:33.752Z,0.30
2022-08-24T18:53:04.602Z,0.23
2022-08-24T18:55:33.377Z,0.20
2022-08-24T18:58:01.623Z,0.10
2022-08-24T19:00:30.590Z,0.40
2022-08-24T19:03:05.007Z,0.10
2022-08-24T19:05:33.527Z,0.13
2022-08-24T19:08:01.524Z,1.53
2022-08-24T19:10:36.953Z,0.33
2022-08-24T19:13:16.220Z,0.10
2022-08-24T19:15:48.284Z,1.00
2022-08-24T19:18:18.638Z,0.70
2022-08-24T19:20:49.939Z,0.10
2022-08-24T19:23:27.973Z,0.30
2022-08-24T19:25:57.071Z,0.10
2022-08-24T19:28:27.692Z,0.83
2022-08-24T19:31:04.532Z,2.40
2022-08-24T19:33:43.731Z,2.97
2022-08-24T19:36:16.146Z,2.40
2022-08-24T19:38:50.755Z,3.67
2022-08-24T19:41:21.055Z,1.70
2022-08-24T19:44:27.212Z,5.33
2022-08-24T19:46:57.320Z,1.87
2022-08-24T19:49:25.975Z,1.63
2022-08-24T19:51:54.488Z,2.90
2022-08-24T19:54:22.739Z,2.07
2022-08-24T19:56:54.428Z,2.50
2022-08-24T19:59:39.074Z,1.83
2022-08-24T20:02:06.759Z,4.90
2022-08-24T20:04:34.730Z,2.50
2022-08-24T20:07:02.489Z,2.57
2022-08-24T20:09:32.312Z,2.27
2022-08-24T20:12:00.016Z,6.47
2022-08-24T20:14:27.594Z,3.90
2022-08-24T20:16:55.400Z,3.13
2022-08-24T20:19:23.418Z,1.70
2022-08-24T20:21:50.855Z,1.87
2022-08-24T20:24:21.803Z,2.07
2022-08-24T20:26:49.532Z,2.63
2022-08-24T20:29:18.273Z,1.93
2022-08-24T20:31:50.728Z,2.03
2022-08-24T20:34:19.961Z,5.23
2022-08-24T20:36:50.130Z,5.60
2022-08-24T20:39:22.088Z,2.50
2022-08-24T20:41:52.866Z,2.10
2022-08-24T20:44:21.420Z,3.47
2022-08-24T20:46:50.955Z,3.13
2022-08-24T20:49:24.754Z,1.93
2022-08-24T20:51:52.656Z,2.97
2022-08-24T20:54:21.383Z,1.63
2022-08-24T20:56:50.252Z,3.10
2022-08-24T20:59:20.070Z,2.00
2022-08-24T21:01:48.903Z,3.63
2022-08-24T21:04:16.255Z,2.37
2022-08-24T21:06:45.349Z,1.43
2022-08-24T21:09:15.753Z,2.03
2022-08-24T21:11:48.506Z,3.20
2022-08-24T21:14:18.171Z,1.40
2022-08-24T21:16:46.479Z,2.80
2022-08-24T21:19:18.105Z,2.63
2022-08-24T21:21:47.367Z,2.10
2022-08-24T21:24:15.981Z,2.37
2022-08-24T21:26:44.000Z,1.37
2022-08-24T21:29:11.934Z,2.07
2022-08-24T21:31:39.790Z,4.40
2022-08-24T21:34:26.609Z,3.43
2022-08-24T21:36:55.660Z,1.63
2022-08-24T21:39:23.964Z,3.90
2022-08-24T21:41:53.739Z,2.00
2022-08-24T21:44:21.435Z,4.37
2022-08-24T21:46:50.584Z,1.63
2022-08-24T21:49:19.151Z,1.60
2022-08-24T21:51:47.612Z,1.93
2022-08-24T21:54:17.056Z,2.63
2022-08-24T21:56:45.160Z,2.40
2022-08-24T21:59:12.994Z,2.40
2022-08-24T22:01:40.952Z,2.10
2022-08-24T22:04:08.982Z,4.87
2022-08-24T22:06:38.530Z,1.87
2022-08-24T22:09:07.855Z,2.23
2022-08-24T22:11:35.900Z,2.13
2022-08-24T22:14:04.815Z,1.60
2022-08-24T22:16:32.806Z,3.60
2022-08-24T22:19:04.628Z,3.57
2022-08-24T22:21:36.386Z,1.40
2022-08-24T22:24:04.524Z,1.93
2022-08-24T22:26:32.225Z,2.83
2022-08-24T22:29:02.084Z,2.10
2022-08-24T22:31:33.394Z,3.00
2022-08-24T22:34:08.977Z,3.87
2022-08-24T22:36:36.541Z,2.40
2022-08-24T22:39:07.736Z,1.87
2022-08-24T22:41:35.997Z,2.23
2022-08-24T22:44:22.476Z,2.07
2022-08-24T22:46:59.431Z,2.00
2022-08-24T22:49:32.257Z,3.40
2022-08-24T22:51:59.891Z,2.13
2022-08-24T22:54:27.961Z,4.80
2022-08-24T22:56:58.637Z,4.63
2022-08-24T22:59:30.102Z,6.90
2022-08-24T23:01:58.270Z,2.40
2022-08-24T23:04:39.628Z,1.90
2022-08-24T23:07:09.089Z,3.70
2022-08-24T23:09:44.386Z,3.27
2022-08-24T23:12:17.866Z,6.30
2022-08-24T23:14:45.866Z,3.10
2022-08-24T23:17:14.243Z,5.17
2022-08-24T23:20:02.508Z,3.87
2022-08-24T23:22:38.614Z,3.07
2022-08-24T23:25:11.843Z,4.30
2022-08-24T23:27:46.603Z,3.73
2022-08-24T23:30:22.118Z,3.13
2022-08-24T23:32:54.275Z,2.37
2022-08-24T23:35:22.052Z,3.93
2022-08-24T23:37:56.333Z,2.60
2022-08-24T23:40:23.946Z,2.83
2022-08-24T23:42:53.979Z,4.57
2022-08-24T23:45:28.119Z,3.87
2022-08-24T23:48:28.164Z,6.60
2022-08-24T23:50:57.729Z,4.40
2022-08-24T23:53:25.581Z,3.80
2022-08-24T23:55:54.448Z,3.20
2022-08-24T23:58:22.141Z,6.27
